Terminal Aerodrome Forecast
Issued by NWS Buffalo, NY

Home | Current Version | Previous Version | Text Only | Print | Product List | Glossary On
Versions: 1 2 3 4 5 6 7 8 9 10 11 12 13 14 15 16 17 18 19 20 21
000
FTUS41 KBUF 242320
TAFBUF
TAF
KBUF 242320Z 2500/2524 23012G18KT P6SM BKN110
     FM250200 21006KT P6SM BKN110
     FM250600 17005KT P6SM OVC080
     FM251500 21012G20KT P6SM BKN050 BKN100
     FM251800 21012G20KT P6SM VCSH BKN050 BKN100=

USA.gov is the U.S. government's official web portal to all federal, state and local government web resources and services.